METAR Data
IDs: Format: Raw Decoded Include TAF

Data at: 0159 UTC 12 May 2021

KMGC 120155Z AUTO 00000KT 10SM CLR 03/00 A3040 RMK AO2
KMGC 120135Z AUTO 00000KT 10SM CLR 05/00 A3039 RMK AO2
KMGC 120115Z AUTO 00000KT 10SM CLR 04/00 A3038 RMK AO2
KMGC 120055Z AUTO 36006KT 10SM CLR 05/00 A3037 RMK AO2
KMGC 120035Z AUTO 36008KT 10SM CLR 06/00 A3037 RMK AO2
KMGC 120015Z AUTO 35010KT 10SM CLR 07/00 A3037 RMK AO2
KMGC 112355Z AUTO 35009G14KT 10SM CLR 07/00 A3037 RMK AO2
KMGC 112335Z AUTO 36008G14KT 10SM CLR 07/00 A3036 RMK AO2
KMGC 112315Z AUTO 36010G17KT 10SM CLR 07/00 A3036 RMK AO2
KMGC 112255Z AUTO 36009G14KT 340V040 10SM CLR 07/00 A3036 RMK AO2
KMGC 112235Z AUTO 36010KT 330V030 10SM CLR 07/00 A3036 RMK AO2
KMGC 112215Z AUTO 01011G17KT 10SM CLR 07/00 A3035 RMK AO2
KMGC 112155Z AUTO 36012G18KT 10SM CLR 07/00 A3035 RMK AO2
KMGC 112135Z AUTO 36009G16KT 10SM CLR 07/00 A3035 RMK AO2
KMGC 112115Z AUTO 01008G17KT 340V040 10SM CLR 08/00 A3035 RMK AO2
KMGC 112055Z AUTO 35010G16KT 330V030 10SM CLR 08/00 A3035 RMK AO2
KMGC 112035Z AUTO 36011G15KT 10SM CLR 08/00 A3036 RMK AO2
KMGC 112015Z AUTO 01010G15KT 10SM CLR 08/00 A3037 RMK AO2
KMGC 111955Z AUTO 02010G15KT 340V060 10SM CLR 08/00 A3036 RMK AO2
KMGC 111935Z AUTO 01012G16KT 10SM SCT026 08/01 A3036 RMK AO2
KMGC 111915Z AUTO 36010G14KT 10SM SCT023 SCT029 08/02 A3037 RMK AO2
KMGC 111855Z AUTO 35012G17KT 10SM CLR 08/01 A3037 RMK AO2
KMGC 111835Z AUTO 34011G16KT 10SM CLR 08/01 A3037 RMK AO2
KMGC 111815Z AUTO 01007KT 330V040 10SM CLR 08/00 A3037 RMK AO2
KMGC 111755Z AUTO 33007G16KT 310V030 10SM CLR 08/00 A3038 RMK AO2
KMGC 111735Z AUTO 36009G15KT 10SM CLR 08/00 A3038 RMK AO2
KMGC 111715Z AUTO 01007G15KT 10SM CLR 08/00 A3038 RMK AO2
KMGC 111655Z AUTO 33007G18KT 300V360 10SM CLR 08/00 A3038 RMK AO2
KMGC 111635Z AUTO 34010G15KT 10SM CLR 08/00 A3038 RMK AO2
KMGC 111615Z AUTO 35008G15KT 10SM CLR 08/00 A3037 RMK AO2
KMGC 111555Z AUTO 02010G15KT 10SM CLR 08/00 A3037 RMK AO2
KMGC 111535Z AUTO 35009KT 330V030 10SM CLR 08/00 A3037 RMK AO2
KMGC 111515Z AUTO 35008KT 10SM CLR 08/00 A3036 RMK AO2
KMGC 111455Z AUTO 02005KT 10SM CLR 08/00 A3036 RMK AO2
KMGC 111435Z AUTO 04008KT 10SM SCT070 08/00 A3035 RMK AO2
KMGC 111415Z AUTO 36007KT 10SM CLR 08/M01 A3035 RMK AO2
KMGC 111355Z AUTO 01005KT 10SM SCT050 07/00 A3035 RMK AO2
KMGC 111335Z AUTO 36006KT 10SM SCT021 SCT026 OVC050 08/01 A3035 RMK AO2
KMGC 111315Z AUTO 04006KT 10SM SCT021 SCT050 07/02 A3033 RMK AO2
KMGC 111255Z AUTO 08003KT 10SM CLR 06/02 A3033 RMK AO2
KMGC 111235Z AUTO 00000KT 10SM CLR 05/02 A3033 RMK AO2
KMGC 111215Z AUTO 00000KT 10SM CLR 03/02 A3032 RMK AO2
KMGC 111155Z AUTO 00000KT 10SM CLR 01/01 A3032 RMK AO2
KMGC 111135Z AUTO 00000KT 10SM CLR 00/00 A3031 RMK AO2
KMGC 111115Z AUTO 00000KT 10SM CLR 00/00 A3031 RMK AO2
KMGC 111055Z AUTO 00000KT 7SM CLR 00/00 A3030 RMK AO2
KMGC 111035Z AUTO 00000KT 10SM CLR 00/00 A3029 RMK AO2
KMGC 111015Z AUTO 00000KT 10SM CLR 00/00 A3028 RMK AO2
KMGC 110955Z AUTO 00000KT 10SM CLR 00/00 A3028 RMK AO2
KMGC 110935Z AUTO 00000KT 10SM CLR 01/00 A3027 RMK AO2
KMGC 110915Z AUTO 00000KT 10SM CLR 00/00 A3027 RMK AO2
KMGC 110855Z AUTO 00000KT 10SM CLR 01/00 A3026 RMK AO2
KMGC 110835Z AUTO 00000KT 10SM SCT120 02/01 A3025 RMK AO2
KMGC 110815Z AUTO 00000KT 10SM SCT120 01/01 A3025 RMK AO2
KMGC 110755Z AUTO 00000KT 10SM BKN120 02/01 A3025 RMK AO2
KMGC 110735Z AUTO 00000KT 10SM OVC120 02/01 A3024 RMK AO2
KMGC 110715Z AUTO 00000KT 10SM SCT100 OVC120 02/01 A3024 RMK AO2
KMGC 110655Z AUTO 00000KT 10SM SCT090 OVC120 02/01 A3024 RMK AO2
KMGC 110635Z AUTO 00000KT 10SM BKN120 02/01 A3024 RMK AO2
KMGC 110615Z AUTO 00000KT 10SM SCT120 02/01 A3024 RMK AO2
KMGC 110555Z AUTO 00000KT 10SM SCT120 02/01 A3024 RMK AO2
KMGC 110535Z AUTO 00000KT 10SM CLR 01/01 A3024 RMK AO2
KMGC 110515Z AUTO 00000KT 10SM CLR 02/01 A3024 RMK AO2
KMGC 110455Z AUTO 00000KT 10SM CLR 02/01 A3024 RMK AO2
KMGC 110435Z AUTO 00000KT 10SM SCT120 03/01 A3023 RMK AO2
KMGC 110415Z AUTO 00000KT 10SM SCT120 03/01 A3024 RMK AO2
KMGC 110355Z AUTO 00000KT 10SM SCT120 03/01 A3023 RMK AO2
KMGC 110335Z AUTO 00000KT 10SM SCT110 03/01 A3023 RMK AO2
KMGC 110315Z AUTO 00000KT 10SM OVC110 04/01 A3023 RMK AO2
KMGC 110255Z AUTO 00000KT 10SM OVC110 05/01 A3022 RMK AO2
KMGC 110235Z AUTO 00000KT 10SM SCT090 OVC110 05/00 A3022 RMK AO2
KMGC 110215Z AUTO 00000KT 10SM BKN110 05/00 A3022 RMK AO2
KMGC 110155Z AUTO 01004KT 10SM OVC110 05/01 A3021 RMK AO2
KMGC 110135Z AUTO 02003KT 10SM OVC110 05/01 A3020 RMK AO2
KMGC 110115Z AUTO 00000KT 10SM OVC110 05/01 A3019 RMK AO2
KMGC 110055Z AUTO 05004KT 10SM OVC110 05/01 A3020 RMK AO2
KMGC 110035Z AUTO 01007KT 10SM OVC120 05/01 A3020 RMK AO2
KMGC 110015Z AUTO 01007KT 10SM BKN120 06/00 A3020 RMK AO2
KMGC 102355Z AUTO 36010KT 10SM CLR 06/M01 A3019 RMK AO2
KMGC 102335Z AUTO 03007KT 10SM CLR 07/M02 A3018 RMK AO2
KMGC 102315Z AUTO 02008KT 10SM CLR 07/00 A3017 RMK AO2
KMGC 102255Z AUTO 03006KT 10SM CLR 07/01 A3017 RMK AO2
KMGC 102235Z AUTO 01012G16KT 10SM BKN095 07/02 A3017 RMK AO2
KMGC 102215Z AUTO 36011G15KT 10SM OVC095 07/02 A3018 RMK AO2
KMGC 102155Z AUTO 01009G14KT 10SM BKN095 07/02 A3018 RMK AO2
KMGC 102135Z AUTO 36012KT 10SM SCT095 08/03 A3017 RMK AO2
KMGC 102115Z AUTO 02010G17KT 10SM CLR 08/02 A3017 RMK AO2
KMGC 102055Z AUTO 01013G16KT 10SM SCT095 08/02 A3017 RMK AO2
KMGC 102035Z AUTO 01013KT 10SM SCT042 BKN095 09/01 A3017 RMK AO2
KMGC 102015Z AUTO 36013KT 10SM SCT042 BKN095 08/02 A3017 RMK AO2
KMGC 101955Z AUTO 01011G17KT 10SM SCT042 BKN095 09/02 A3017 RMK AO2
KMGC 101935Z AUTO 36013KT 10SM SCT055 OVC095 09/02 A3016 RMK AO2
KMGC 101915Z AUTO 36009KT 10SM SCT055 BKN095 11/03 A3015 RMK AO2
KMGC 101855Z AUTO 01007KT 350V050 10SM SCT055 SCT085 10/03 A3015 RMK AO2
KMGC 101835Z AUTO 36005KT 10SM CLR 10/02 A3015 RMK AO2
KMGC 101815Z AUTO 03006KT 10SM SCT100 09/02 A3014 RMK AO2
KMGC 101755Z AUTO 02010KT 10SM SCT040 SCT110 09/02 A3015 RMK AO2
KMGC 101735Z AUTO 05009G14KT 10SM SCT042 SCT050 BKN080 09/02 A3016 RMK AO2
KMGC 101715Z AUTO 02007KT 10SM SCT045 BKN050 OVC080 08/00 A3017 RMK AO2
KMGC 101655Z AUTO 01008KT 10SM OVC055 08/00 A3017 RMK AO2
KMGC 101635Z AUTO 01008KT 10SM OVC055 08/01 A3017 RMK AO2
KMGC 101615Z AUTO 01007KT 10SM OVC065 08/01 A3017 RMK AO2
KMGC 101555Z AUTO 35005KT 10SM SCT070 BKN075 BKN100 09/02 A3016 RMK AO2
KMGC 101535Z AUTO 00000KT 10SM SCT085 BKN110 08/02 A3015 RMK AO2
KMGC 101515Z AUTO 34003KT 10SM SCT095 SCT110 08/02 A3015 RMK AO2
KMGC 101455Z AUTO 00000KT 10SM BKN095 08/02 A3014 RMK AO2
KMGC 101435Z AUTO 36004KT 10SM BKN095 07/01 A3014 RMK AO2
KMGC 101415Z AUTO 02005KT 10SM OVC085 07/02 A3014 RMK AO2